sensor_id;sensor_type;location;lat;lon;timestamp;P1;durP1;ratioP1;P2;durP2;ratioP2
4533;SDS011;2279;51.448;7.306;2024-01-27T00:01:56;203.53;;;58.30;;
4533;SDS011;2279;51.448;7.306;2024-01-27T00:04:22;203.77;;;58.20;;
4533;SDS011;2279;51.448;7.306;2024-01-27T00:06:48;203.30;;;56.90;;
4533;SDS011;2279;51.448;7.306;2024-01-27T00:09:14;202.90;;;57.60;;
4533;SDS011;2279;51.448;7.306;2024-01-27T00:11:40;205.27;;;58.70;;
4533;SDS011;2279;51.448;7.306;2024-01-27T00:14:06;206.03;;;58.70;;
4533;SDS011;2279;51.448;7.306;2024-01-27T00:16:32;202.98;;;56.85;;
4533;SDS011;2279;51.448;7.306;2024-01-27T00:18:58;203.82;;;57.63;;
4533;SDS011;2279;51.448;7.306;2024-01-27T00:21:24;204.23;;;58.77;;
4533;SDS011;2279;51.448;7.306;2024-01-27T00:23:50;201.70;;;55.70;;
4533;SDS011;2279;51.448;7.306;2024-01-27T00:26:16;203.50;;;58.03;;
4533;SDS011;2279;51.448;7.306;2024-01-27T00:28:42;202.80;;;56.60;;
4533;SDS011;2279;51.448;7.306;2024-01-27T00:31:08;202.70;;;57.57;;
4533;SDS011;2279;51.448;7.306;2024-01-27T00:33:34;211.07;;;62.13;;
4533;SDS011;2279;51.448;7.306;2024-01-27T00:36:01;206.68;;;59.40;;
4533;SDS011;2279;51.448;7.306;2024-01-27T00:38:27;200.18;;;54.97;;
4533;SDS011;2279;51.448;7.306;2024-01-27T00:40:53;202.33;;;56.67;;
4533;SDS011;2279;51.448;7.306;2024-01-27T00:43:19;207.85;;;60.80;;
4533;SDS011;2279;51.448;7.306;2024-01-27T00:45:45;202.40;;;57.57;;
4533;SDS011;2279;51.448;7.306;2024-01-27T00:48:11;202.73;;;57.37;;
4533;SDS011;2279;51.448;7.306;2024-01-27T00:50:37;201.47;;;57.13;;
4533;SDS011;2279;51.448;7.306;2024-01-27T00:53:03;202.68;;;57.13;;
4533;SDS011;2279;51.448;7.306;2024-01-27T00:55:29;199.40;;;55.58;;
4533;SDS011;2279;51.448;7.306;2024-01-27T00:57:55;202.63;;;57.17;;
4533;SDS011;2279;51.448;7.306;2024-01-27T01:00:21;203.43;;;57.05;;
4533;SDS011;2279;51.448;7.306;2024-01-27T01:02:47;201.00;;;56.10;;
4533;SDS011;2279;51.448;7.306;2024-01-27T01:05:13;204.93;;;58.60;;
4533;SDS011;2279;51.448;7.306;2024-01-27T01:07:39;203.50;;;57.03;;
4533;SDS011;2279;51.448;7.306;2024-01-27T01:10:05;205.85;;;59.25;;
4533;SDS011;2279;51.448;7.306;2024-01-27T01:12:32;203.82;;;59.10;;
4533;SDS011;2279;51.448;7.306;2024-01-27T01:14:57;203.30;;;57.43;;
4533;SDS011;2279;51.448;7.306;2024-01-27T01:17:23;200.50;;;55.57;;
4533;SDS011;2279;51.448;7.306;2024-01-27T01:19:49;201.37;;;56.63;;
4533;SDS011;2279;51.448;7.306;2024-01-27T01:22:15;201.93;;;57.30;;
4533;SDS011;2279;51.448;7.306;2024-01-27T01:24:41;203.33;;;58.23;;
4533;SDS011;2279;51.448;7.306;2024-01-27T01:27:07;201.38;;;56.33;;
4533;SDS011;2279;51.448;7.306;2024-01-27T01:29:33;199.97;;;56.23;;
4533;SDS011;2279;51.448;7.306;2024-01-27T01:32:00;201.40;;;56.33;;
4533;SDS011;2279;51.448;7.306;2024-01-27T01:34:28;203.50;;;59.55;;
4533;SDS011;2279;51.448;7.306;2024-01-27T01:36:53;201.13;;;56.50;;
4533;SDS011;2279;51.448;7.306;2024-01-27T01:39:19;201.32;;;58.40;;
4533;SDS011;2279;51.448;7.306;2024-01-27T01:41:45;200.37;;;57.13;;
4533;SDS011;2279;51.448;7.306;2024-01-27T01:44:11;200.68;;;56.92;;
4533;SDS011;2279;51.448;7.306;2024-01-27T01:46:37;203.30;;;58.90;;
4533;SDS011;2279;51.448;7.306;2024-01-27T01:49:03;200.90;;;57.25;;
4533;SDS011;2279;51.448;7.306;2024-01-27T01:51:30;201.38;;;56.42;;
4533;SDS011;2279;51.448;7.306;2024-01-27T01:53:57;201.57;;;57.03;;
4533;SDS011;2279;51.448;7.306;2024-01-27T01:56:23;203.55;;;59.53;;
4533;SDS011;2279;51.448;7.306;2024-01-27T01:58:49;201.20;;;56.78;;
4533;SDS011;2279;51.448;7.306;2024-01-27T02:01:18;202.97;;;57.70;;
4533;SDS011;2279;51.448;7.306;2024-01-27T02:03:55;207.70;;;62.70;;
4533;SDS011;2279;51.448;7.306;2024-01-27T02:06:22;200.32;;;56.63;;
4533;SDS011;2279;51.448;7.306;2024-01-27T02:08:48;201.35;;;57.40;;
4533;SDS011;2279;51.448;7.306;2024-01-27T02:11:14;203.68;;;58.75;;
4533;SDS011;2279;51.448;7.306;2024-01-27T02:13:40;209.07;;;62.73;;
4533;SDS011;2279;51.448;7.306;2024-01-27T02:16:07;203.52;;;59.05;;
4533;SDS011;2279;51.448;7.306;2024-01-27T02:18:34;199.60;;;57.17;;
4533;SDS011;2279;51.448;7.306;2024-01-27T02:21:00;201.50;;;57.65;;
4533;SDS011;2279;51.448;7.306;2024-01-27T02:23:26;211.77;;;65.40;;
4533;SDS011;2279;51.448;7.306;2024-01-27T02:25:52;201.48;;;56.15;;
4533;SDS011;2279;51.448;7.306;2024-01-27T02:28:18;202.07;;;56.38;;
4533;SDS011;2279;51.448;7.306;2024-01-27T02:30:44;199.63;;;55.97;;
4533;SDS011;2279;51.448;7.306;2024-01-27T02:33:10;205.85;;;58.75;;
4533;SDS011;2279;51.448;7.306;2024-01-27T02:35:36;200.23;;;57.23;;
4533;SDS011;2279;51.448;7.306;2024-01-27T02:38:02;199.85;;;56.10;;
4533;SDS011;2279;51.448;7.306;2024-01-27T02:40:28;200.65;;;56.08;;
4533;SDS011;2279;51.448;7.306;2024-01-27T02:42:54;202.07;;;57.27;;
4533;SDS011;2279;51.448;7.306;2024-01-27T02:45:20;202.97;;;58.67;;
4533;SDS011;2279;51.448;7.306;2024-01-27T02:47:46;199.47;;;56.33;;
4533;SDS011;2279;51.448;7.306;2024-01-27T02:50:12;200.83;;;57.97;;
4533;SDS011;2279;51.448;7.306;2024-01-27T02:52:38;203.57;;;58.78;;
4533;SDS011;2279;51.448;7.306;2024-01-27T02:55:05;202.77;;;58.47;;
4533;SDS011;2279;51.448;7.306;2024-01-27T02:57:31;203.02;;;56.97;;
4533;SDS011;2279;51.448;7.306;2024-01-27T02:59:57;202.40;;;56.70;;
4533;SDS011;2279;51.448;7.306;2024-01-27T03:02:23;202.23;;;57.92;;
4533;SDS011;2279;51.448;7.306;2024-01-27T03:04:49;201.77;;;57.40;;
4533;SDS011;2279;51.448;7.306;2024-01-27T03:07:15;200.60;;;56.90;;
4533;SDS011;2279;51.448;7.306;2024-01-27T03:09:41;200.48;;;56.65;;
4533;SDS011;2279;51.448;7.306;2024-01-27T03:12:07;202.82;;;58.45;;
4533;SDS011;2279;51.448;7.306;2024-01-27T03:14:33;201.90;;;57.90;;
4533;SDS011;2279;51.448;7.306;2024-01-27T03:17:00;201.80;;;56.65;;
4533;SDS011;2279;51.448;7.306;2024-01-27T03:19:25;201.57;;;56.67;;
4533;SDS011;2279;51.448;7.306;2024-01-27T03:21:51;202.30;;;56.97;;
4533;SDS011;2279;51.448;7.306;2024-01-27T03:24:17;202.33;;;56.93;;
4533;SDS011;2279;51.448;7.306;2024-01-27T03:26:43;199.10;;;55.17;;
4533;SDS011;2279;51.448;7.306;2024-01-27T03:29:09;201.87;;;56.57;;
4533;SDS011;2279;51.448;7.306;2024-01-27T03:31:35;202.45;;;57.80;;
4533;SDS011;2279;51.448;7.306;2024-01-27T03:34:01;199.93;;;56.50;;
4533;SDS011;2279;51.448;7.306;2024-01-27T03:36:28;201.10;;;57.03;;
4533;SDS011;2279;51.448;7.306;2024-01-27T03:38:55;197.98;;;55.20;;
4533;SDS011;2279;51.448;7.306;2024-01-27T03:41:21;201.82;;;56.28;;
4533;SDS011;2279;51.448;7.306;2024-01-27T03:43:47;200.37;;;55.60;;
4533;SDS011;2279;51.448;7.306;2024-01-27T03:46:13;200.90;;;55.85;;
4533;SDS011;2279;51.448;7.306;2024-01-27T03:48:39;202.13;;;57.35;;
4533;SDS011;2279;51.448;7.306;2024-01-27T03:51:05;200.33;;;55.60;;
4533;SDS011;2279;51.448;7.306;2024-01-27T03:53:31;204.67;;;59.43;;
4533;SDS011;2279;51.448;7.306;2024-01-27T03:55:57;201.60;;;56.43;;
4533;SDS011;2279;51.448;7.306;2024-01-27T03:58:24;200.07;;;55.42;;
4533;SDS011;2279;51.448;7.306;2024-01-27T04:00:51;199.50;;;54.92;;
4533;SDS011;2279;51.448;7.306;2024-01-27T04:03:17;201.73;;;56.88;;
4533;SDS011;2279;51.448;7.306;2024-01-27T04:05:43;201.77;;;57.78;;
4533;SDS011;2279;51.448;7.306;2024-01-27T04:08:09;203.10;;;58.10;;
4533;SDS011;2279;51.448;7.306;2024-01-27T04:10:36;201.50;;;56.93;;
4533;SDS011;2279;51.448;7.306;2024-01-27T04:13:02;199.75;;;56.30;;
4533;SDS011;2279;51.448;7.306;2024-01-27T04:15:28;199.02;;;54.45;;
4533;SDS011;2279;51.448;7.306;2024-01-27T04:17:54;200.10;;;55.25;;
4533;SDS011;2279;51.448;7.306;2024-01-27T04:20:20;198.88;;;54.47;;
4533;SDS011;2279;51.448;7.306;2024-01-27T04:22:46;201.87;;;56.93;;
4533;SDS011;2279;51.448;7.306;2024-01-27T04:25:12;201.73;;;57.17;;
4533;SDS011;2279;51.448;7.306;2024-01-27T04:27:38;200.27;;;56.00;;
4533;SDS011;2279;51.448;7.306;2024-01-27T04:30:05;201.02;;;55.95;;
4533;SDS011;2279;51.448;7.306;2024-01-27T04:32:32;200.52;;;56.00;;
4533;SDS011;2279;51.448;7.306;2024-01-27T04:34:58;200.25;;;55.50;;
4533;SDS011;2279;51.448;7.306;2024-01-27T04:37:24;200.63;;;56.07;;
4533;SDS011;2279;51.448;7.306;2024-01-27T04:39:51;198.73;;;55.70;;
4533;SDS011;2279;51.448;7.306;2024-01-27T04:42:17;199.33;;;55.43;;
4533;SDS011;2279;51.448;7.306;2024-01-27T04:44:43;199.07;;;54.70;;
4533;SDS011;2279;51.448;7.306;2024-01-27T04:47:09;196.50;;;54.77;;
4533;SDS011;2279;51.448;7.306;2024-01-27T04:49:35;197.18;;;53.58;;
4533;SDS011;2279;51.448;7.306;2024-01-27T04:52:01;199.40;;;55.60;;
4533;SDS011;2279;51.448;7.306;2024-01-27T04:54:27;199.00;;;54.13;;
4533;SDS011;2279;51.448;7.306;2024-01-27T04:56:53;195.27;;;52.60;;
4533;SDS011;2279;51.448;7.306;2024-01-27T04:59:18;197.13;;;53.60;;
4533;SDS011;2279;51.448;7.306;2024-01-27T05:01:45;198.50;;;54.90;;
4533;SDS011;2279;51.448;7.306;2024-01-27T05:04:11;197.73;;;53.38;;
4533;SDS011;2279;51.448;7.306;2024-01-27T05:06:37;197.75;;;53.80;;
4533;SDS011;2279;51.448;7.306;2024-01-27T05:09:04;199.48;;;54.33;;
4533;SDS011;2279;51.448;7.306;2024-01-27T05:11:33;198.90;;;53.85;;
4533;SDS011;2279;51.448;7.306;2024-01-27T05:13:59;197.55;;;53.75;;
4533;SDS011;2279;51.448;7.306;2024-01-27T05:16:25;199.05;;;54.92;;
4533;SDS011;2279;51.448;7.306;2024-01-27T05:18:51;195.15;;;52.67;;
4533;SDS011;2279;51.448;7.306;2024-01-27T05:21:17;196.23;;;53.72;;
4533;SDS011;2279;51.448;7.306;2024-01-27T05:23:43;197.48;;;53.50;;
4533;SDS011;2279;51.448;7.306;2024-01-27T05:26:09;197.57;;;53.58;;
4533;SDS011;2279;51.448;7.306;2024-01-27T05:28:36;195.93;;;53.22;;
4533;SDS011;2279;51.448;7.306;2024-01-27T05:31:03;197.50;;;53.40;;
4533;SDS011;2279;51.448;7.306;2024-01-27T05:33:29;199.77;;;55.22;;
4533;SDS011;2279;51.448;7.306;2024-01-27T05:35:55;199.27;;;54.60;;
4533;SDS011;2279;51.448;7.306;2024-01-27T05:38:21;196.13;;;52.90;;
4533;SDS011;2279;51.448;7.306;2024-01-27T05:40:47;197.35;;;53.90;;
4533;SDS011;2279;51.448;7.306;2024-01-27T05:43:14;197.45;;;53.35;;
4533;SDS011;2279;51.448;7.306;2024-01-27T05:45:40;197.55;;;55.17;;
4533;SDS011;2279;51.448;7.306;2024-01-27T05:48:06;196.77;;;53.60;;
4533;SDS011;2279;51.448;7.306;2024-01-27T05:50:33;194.95;;;52.67;;
4533;SDS011;2279;51.448;7.306;2024-01-27T05:53:00;197.15;;;53.55;;
4533;SDS011;2279;51.448;7.306;2024-01-27T05:55:26;196.13;;;52.90;;
4533;SDS011;2279;51.448;7.306;2024-01-27T05:57:52;196.43;;;53.40;;
4533;SDS011;2279;51.448;7.306;2024-01-27T06:00:20;198.23;;;54.20;;
4533;SDS011;2279;51.448;7.306;2024-01-27T06:02:46;197.23;;;54.45;;
4533;SDS011;2279;51.448;7.306;2024-01-27T06:05:12;197.95;;;54.13;;
4533;SDS011;2279;51.448;7.306;2024-01-27T06:07:38;195.90;;;52.50;;
4533;SDS011;2279;51.448;7.306;2024-01-27T06:10:06;198.82;;;54.30;;
4533;SDS011;2279;51.448;7.306;2024-01-27T06:12:32;198.55;;;54.70;;
4533;SDS011;2279;51.448;7.306;2024-01-27T06:14:59;197.82;;;54.22;;
4533;SDS011;2279;51.448;7.306;2024-01-27T06:17:25;195.87;;;53.00;;
4533;SDS011;2279;51.448;7.306;2024-01-27T06:19:51;199.68;;;56.05;;
4533;SDS011;2279;51.448;7.306;2024-01-27T06:22:17;196.77;;;54.80;;
4533;SDS011;2279;51.448;7.306;2024-01-27T06:24:43;198.07;;;55.47;;
4533;SDS011;2279;51.448;7.306;2024-01-27T06:27:10;196.43;;;54.05;;
4533;SDS011;2279;51.448;7.306;2024-01-27T06:29:36;196.07;;;54.08;;
4533;SDS011;2279;51.448;7.306;2024-01-27T06:32:02;198.90;;;56.03;;
4533;SDS011;2279;51.448;7.306;2024-01-27T06:34:28;200.65;;;56.03;;
4533;SDS011;2279;51.448;7.306;2024-01-27T06:36:54;198.23;;;55.10;;
4533;SDS011;2279;51.448;7.306;2024-01-27T06:39:20;198.97;;;56.10;;
4533;SDS011;2279;51.448;7.306;2024-01-27T06:41:46;199.45;;;55.30;;
4533;SDS011;2279;51.448;7.306;2024-01-27T06:44:12;198.75;;;55.47;;
4533;SDS011;2279;51.448;7.306;2024-01-27T06:46:38;198.95;;;55.85;;
4533;SDS011;2279;51.448;7.306;2024-01-27T06:49:04;199.17;;;56.60;;
4533;SDS011;2279;51.448;7.306;2024-01-27T06:51:30;197.50;;;55.83;;
4533;SDS011;2279;51.448;7.306;2024-01-27T06:53:56;197.47;;;54.23;;
4533;SDS011;2279;51.448;7.306;2024-01-27T06:56:22;199.20;;;56.05;;
4533;SDS011;2279;51.448;7.306;2024-01-27T06:58:48;195.10;;;54.77;;
4533;SDS011;2279;51.448;7.306;2024-01-27T07:01:14;198.50;;;55.37;;
4533;SDS011;2279;51.448;7.306;2024-01-27T07:03:40;197.73;;;55.70;;
4533;SDS011;2279;51.448;7.306;2024-01-27T07:06:06;200.57;;;57.95;;
4533;SDS011;2279;51.448;7.306;2024-01-27T07:08:32;195.77;;;53.60;;
4533;SDS011;2279;51.448;7.306;2024-01-27T07:10:58;195.63;;;54.13;;
4533;SDS011;2279;51.448;7.306;2024-01-27T07:13:24;199.25;;;55.90;;
4533;SDS011;2279;51.448;7.306;2024-01-27T07:15:51;197.45;;;55.10;;
4533;SDS011;2279;51.448;7.306;2024-01-27T07:18:17;199.03;;;55.20;;
4533;SDS011;2279;51.448;7.306;2024-01-27T07:20:44;198.48;;;55.80;;
4533;SDS011;2279;51.448;7.306;2024-01-27T07:23:10;199.10;;;55.87;;
4533;SDS011;2279;51.448;7.306;2024-01-27T07:25:36;200.90;;;56.13;;
4533;SDS011;2279;51.448;7.306;2024-01-27T07:28:02;202.30;;;58.10;;
4533;SDS011;2279;51.448;7.306;2024-01-27T07:30:28;198.90;;;55.92;;
4533;SDS011;2279;51.448;7.306;2024-01-27T07:32:55;201.98;;;58.85;;
4533;SDS011;2279;51.448;7.306;2024-01-27T07:35:21;199.80;;;57.70;;
4533;SDS011;2279;51.448;7.306;2024-01-27T07:37:47;199.50;;;57.33;;
4533;SDS011;2279;51.448;7.306;2024-01-27T07:40:13;199.67;;;55.90;;
4533;SDS011;2279;51.448;7.306;2024-01-27T07:42:39;200.13;;;56.90;;
4533;SDS011;2279;51.448;7.306;2024-01-27T07:45:06;197.77;;;55.72;;
4533;SDS011;2279;51.448;7.306;2024-01-27T07:47:33;198.38;;;56.35;;
4533;SDS011;2279;51.448;7.306;2024-01-27T07:49:59;199.85;;;58.55;;
4533;SDS011;2279;51.448;7.306;2024-01-27T07:52:25;201.73;;;59.97;;
4533;SDS011;2279;51.448;7.306;2024-01-27T07:54:51;200.30;;;58.28;;
4533;SDS011;2279;51.448;7.306;2024-01-27T07:57:19;199.25;;;57.80;;
4533;SDS011;2279;51.448;7.306;2024-01-27T07:59:45;199.48;;;58.63;;
4533;SDS011;2279;51.448;7.306;2024-01-27T08:02:11;203.30;;;59.70;;
4533;SDS011;2279;51.448;7.306;2024-01-27T08:04:37;202.82;;;60.20;;
4533;SDS011;2279;51.448;7.306;2024-01-27T08:07:03;197.98;;;55.30;;
4533;SDS011;2279;51.448;7.306;2024-01-27T08:09:35;201.90;;;58.58;;
4533;SDS011;2279;51.448;7.306;2024-01-27T08:12:01;199.38;;;57.25;;
4533;SDS011;2279;51.448;7.306;2024-01-27T08:14:28;199.88;;;58.05;;
4533;SDS011;2279;51.448;7.306;2024-01-27T08:16:58;202.32;;;61.53;;
4533;SDS011;2279;51.448;7.306;2024-01-27T08:19:24;201.30;;;60.07;;
4533;SDS011;2279;51.448;7.306;2024-01-27T08:21:50;200.95;;;58.80;;
4533;SDS011;2279;51.448;7.306;2024-01-27T08:24:16;201.07;;;58.53;;
4533;SDS011;2279;51.448;7.306;2024-01-27T08:26:42;200.77;;;58.90;;
4533;SDS011;2279;51.448;7.306;2024-01-27T08:29:08;199.65;;;57.58;;
4533;SDS011;2279;51.448;7.306;2024-01-27T08:31:34;201.13;;;57.85;;
4533;SDS011;2279;51.448;7.306;2024-01-27T08:34:02;202.13;;;59.78;;
4533;SDS011;2279;51.448;7.306;2024-01-27T08:36:28;201.20;;;58.40;;
4533;SDS011;2279;51.448;7.306;2024-01-27T08:38:54;204.53;;;63.27;;
4533;SDS011;2279;51.448;7.306;2024-01-27T08:41:21;202.17;;;59.93;;
4533;SDS011;2279;51.448;7.306;2024-01-27T08:43:47;202.40;;;59.65;;
4533;SDS011;2279;51.448;7.306;2024-01-27T08:46:13;204.18;;;60.25;;
4533;SDS011;2279;51.448;7.306;2024-01-27T08:48:40;207.93;;;63.13;;
4533;SDS011;2279;51.448;7.306;2024-01-27T08:51:09;210.70;;;64.15;;
4533;SDS011;2279;51.448;7.306;2024-01-27T08:53:36;212.02;;;63.85;;
4533;SDS011;2279;51.448;7.306;2024-01-27T08:56:02;212.27;;;66.30;;
4533;SDS011;2279;51.448;7.306;2024-01-27T08:58:28;215.00;;;66.75;;
4533;SDS011;2279;51.448;7.306;2024-01-27T09:00:54;213.83;;;67.87;;
4533;SDS011;2279;51.448;7.306;2024-01-27T09:03:20;220.10;;;74.47;;
4533;SDS011;2279;51.448;7.306;2024-01-27T09:05:46;219.43;;;70.73;;
4533;SDS011;2279;51.448;7.306;2024-01-27T09:08:12;222.25;;;70.63;;
4533;SDS011;2279;51.448;7.306;2024-01-27T09:10:39;220.05;;;71.45;;
4533;SDS011;2279;51.448;7.306;2024-01-27T09:13:04;219.00;;;68.80;;
4533;SDS011;2279;51.448;7.306;2024-01-27T09:15:30;219.77;;;70.77;;
4533;SDS011;2279;51.448;7.306;2024-01-27T09:17:56;223.82;;;74.30;;
4533;SDS011;2279;51.448;7.306;2024-01-27T09:20:24;224.30;;;74.20;;
4533;SDS011;2279;51.448;7.306;2024-01-27T09:22:50;234.13;;;83.90;;
4533;SDS011;2279;51.448;7.306;2024-01-27T09:25:19;225.30;;;75.03;;
4533;SDS011;2279;51.448;7.306;2024-01-27T09:27:44;231.20;;;76.47;;
4533;SDS011;2279;51.448;7.306;2024-01-27T09:30:11;230.97;;;78.97;;
4533;SDS011;2279;51.448;7.306;2024-01-27T09:32:37;231.60;;;78.20;;
4533;SDS011;2279;51.448;7.306;2024-01-27T09:35:03;229.97;;;75.67;;
4533;SDS011;2279;51.448;7.306;2024-01-27T09:37:29;233.52;;;77.97;;
4533;SDS011;2279;51.448;7.306;2024-01-27T09:39:55;234.63;;;77.28;;
4533;SDS011;2279;51.448;7.306;2024-01-27T09:42:21;235.18;;;79.22;;
4533;SDS011;2279;51.448;7.306;2024-01-27T09:44:48;236.05;;;78.65;;
4533;SDS011;2279;51.448;7.306;2024-01-27T09:47:15;238.18;;;78.28;;
4533;SDS011;2279;51.448;7.306;2024-01-27T09:49:41;244.20;;;87.10;;
4533;SDS011;2279;51.448;7.306;2024-01-27T09:52:07;242.27;;;82.73;;
4533;SDS011;2279;51.448;7.306;2024-01-27T09:54:34;244.23;;;83.83;;
4533;SDS011;2279;51.448;7.306;2024-01-27T09:57:00;242.87;;;83.50;;
4533;SDS011;2279;51.448;7.306;2024-01-27T09:59:27;243.67;;;85.30;;
4533;SDS011;2279;51.448;7.306;2024-01-27T10:01:53;240.70;;;82.18;;
4533;SDS011;2279;51.448;7.306;2024-01-27T10:04:20;242.25;;;84.35;;
4533;SDS011;2279;51.448;7.306;2024-01-27T10:06:47;245.60;;;86.33;;
4533;SDS011;2279;51.448;7.306;2024-01-27T10:09:14;242.83;;;84.13;;
4533;SDS011;2279;51.448;7.306;2024-01-27T10:11:41;239.97;;;83.07;;
4533;SDS011;2279;51.448;7.306;2024-01-27T10:14:08;242.20;;;88.93;;
4533;SDS011;2279;51.448;7.306;2024-01-27T10:16:41;241.80;;;84.67;;
4533;SDS011;2279;51.448;7.306;2024-01-27T10:19:08;241.47;;;82.77;;
4533;SDS011;2279;51.448;7.306;2024-01-27T10:21:37;239.00;;;81.15;;
4533;SDS011;2279;51.448;7.306;2024-01-27T10:24:03;240.47;;;83.20;;
4533;SDS011;2279;51.448;7.306;2024-01-27T10:26:31;238.38;;;82.18;;
4533;SDS011;2279;51.448;7.306;2024-01-27T10:28:58;241.37;;;86.13;;
4533;SDS011;2279;51.448;7.306;2024-01-27T10:31:28;238.32;;;81.90;;
4533;SDS011;2279;51.448;7.306;2024-01-27T10:33:55;241.90;;;84.40;;
4533;SDS011;2279;51.448;7.306;2024-01-27T10:36:26;243.87;;;87.17;;
4533;SDS011;2279;51.448;7.306;2024-01-27T10:38:52;242.17;;;88.30;;
4533;SDS011;2279;51.448;7.306;2024-01-27T10:41:22;244.10;;;91.00;;
4533;SDS011;2279;51.448;7.306;2024-01-27T10:43:52;236.02;;;80.75;;
4533;SDS011;2279;51.448;7.306;2024-01-27T10:46:19;239.07;;;81.97;;
4533;SDS011;2279;51.448;7.306;2024-01-27T10:48:50;238.25;;;82.57;;
4533;SDS011;2279;51.448;7.306;2024-01-27T10:51:18;238.95;;;84.45;;
4533;SDS011;2279;51.448;7.306;2024-01-27T10:53:49;241.85;;;86.53;;
4533;SDS011;2279;51.448;7.306;2024-01-27T10:56:15;236.52;;;80.05;;
4533;SDS011;2279;51.448;7.306;2024-01-27T10:58:41;238.57;;;82.60;;
4533;SDS011;2279;51.448;7.306;2024-01-27T11:01:08;244.40;;;86.70;;
4533;SDS011;2279;51.448;7.306;2024-01-27T11:03:36;244.07;;;92.00;;
4533;SDS011;2279;51.448;7.306;2024-01-27T11:06:04;243.83;;;90.93;;
4533;SDS011;2279;51.448;7.306;2024-01-27T11:08:30;245.27;;;91.60;;
4533;SDS011;2279;51.448;7.306;2024-01-27T11:10:57;242.23;;;90.33;;
4533;SDS011;2279;51.448;7.306;2024-01-27T11:13:23;246.27;;;91.73;;
4533;SDS011;2279;51.448;7.306;2024-01-27T11:15:56;243.50;;;92.50;;
4533;SDS011;2279;51.448;7.306;2024-01-27T11:18:24;240.57;;;92.70;;
4533;SDS011;2279;51.448;7.306;2024-01-27T11:20:52;238.13;;;88.70;;
4533;SDS011;2279;51.448;7.306;2024-01-27T11:23:19;244.97;;;97.20;;
4533;SDS011;2279;51.448;7.306;2024-01-27T11:25:45;239.10;;;91.07;;
4533;SDS011;2279;51.448;7.306;2024-01-27T11:28:16;240.03;;;90.40;;
4533;SDS011;2279;51.448;7.306;2024-01-27T11:30:46;241.80;;;92.57;;
4533;SDS011;2279;51.448;7.306;2024-01-27T11:33:12;241.33;;;89.23;;
4533;SDS011;2279;51.448;7.306;2024-01-27T11:35:38;239.37;;;88.23;;
4533;SDS011;2279;51.448;7.306;2024-01-27T11:38:04;243.10;;;94.17;;
4533;SDS011;2279;51.448;7.306;2024-01-27T11:40:30;233.77;;;84.47;;
4533;SDS011;2279;51.448;7.306;2024-01-27T11:42:59;240.40;;;95.57;;
4533;SDS011;2279;51.448;7.306;2024-01-27T11:45:26;234.97;;;86.20;;
4533;SDS011;2279;51.448;7.306;2024-01-27T11:47:54;234.77;;;88.00;;
4533;SDS011;2279;51.448;7.306;2024-01-27T11:50:21;235.60;;;90.70;;
4533;SDS011;2279;51.448;7.306;2024-01-27T11:52:47;237.80;;;94.57;;
4533;SDS011;2279;51.448;7.306;2024-01-27T11:55:13;231.27;;;86.23;;
4533;SDS011;2279;51.448;7.306;2024-01-27T11:57:40;231.93;;;87.83;;
4533;SDS011;2279;51.448;7.306;2024-01-27T12:00:06;231.40;;;86.53;;
4533;SDS011;2279;51.448;7.306;2024-01-27T12:02:34;236.77;;;88.37;;
4533;SDS011;2279;51.448;7.306;2024-01-27T12:05:00;237.57;;;93.53;;
4533;SDS011;2279;51.448;7.306;2024-01-27T12:07:26;230.80;;;87.03;;
4533;SDS011;2279;51.448;7.306;2024-01-27T12:09:52;235.63;;;88.87;;
4533;SDS011;2279;51.448;7.306;2024-01-27T12:12:19;233.03;;;84.17;;
4533;SDS011;2279;51.448;7.306;2024-01-27T12:14:46;237.17;;;90.83;;
4533;SDS011;2279;51.448;7.306;2024-01-27T12:17:12;233.30;;;84.90;;
4533;SDS011;2279;51.448;7.306;2024-01-27T12:19:38;236.07;;;85.27;;
4533;SDS011;2279;51.448;7.306;2024-01-27T12:22:04;238.13;;;92.63;;
4533;SDS011;2279;51.448;7.306;2024-01-27T12:24:31;236.45;;;88.10;;
4533;SDS011;2279;51.448;7.306;2024-01-27T12:26:57;239.67;;;90.67;;
4533;SDS011;2279;51.448;7.306;2024-01-27T12:29:23;236.40;;;87.83;;
4533;SDS011;2279;51.448;7.306;2024-01-27T12:31:49;242.27;;;91.33;;
4533;SDS011;2279;51.448;7.306;2024-01-27T12:34:15;240.30;;;87.17;;
4533;SDS011;2279;51.448;7.306;2024-01-27T12:36:41;238.33;;;85.80;;
4533;SDS011;2279;51.448;7.306;2024-01-27T12:39:08;240.77;;;86.50;;
4533;SDS011;2279;51.448;7.306;2024-01-27T12:41:34;239.45;;;86.68;;
4533;SDS011;2279;51.448;7.306;2024-01-27T12:44:00;239.00;;;86.50;;
4533;SDS011;2279;51.448;7.306;2024-01-27T12:46:29;237.63;;;82.57;;
4533;SDS011;2279;51.448;7.306;2024-01-27T12:48:56;236.40;;;81.32;;
4533;SDS011;2279;51.448;7.306;2024-01-27T12:51:22;238.40;;;83.47;;
4533;SDS011;2279;51.448;7.306;2024-01-27T12:53:49;236.68;;;80.40;;
4533;SDS011;2279;51.448;7.306;2024-01-27T12:56:15;237.93;;;83.17;;
4533;SDS011;2279;51.448;7.306;2024-01-27T12:58:41;238.23;;;83.82;;
4533;SDS011;2279;51.448;7.306;2024-01-27T13:01:08;239.05;;;82.68;;
4533;SDS011;2279;51.448;7.306;2024-01-27T13:03:34;243.20;;;87.18;;
4533;SDS011;2279;51.448;7.306;2024-01-27T13:06:01;237.77;;;84.65;;
4533;SDS011;2279;51.448;7.306;2024-01-27T13:08:27;243.50;;;91.05;;
4533;SDS011;2279;51.448;7.306;2024-01-27T13:10:53;237.57;;;82.40;;
4533;SDS011;2279;51.448;7.306;2024-01-27T13:13:19;237.45;;;83.35;;
4533;SDS011;2279;51.448;7.306;2024-01-27T13:15:45;233.40;;;76.93;;
4533;SDS011;2279;51.448;7.306;2024-01-27T13:18:11;235.98;;;82.80;;
4533;SDS011;2279;51.448;7.306;2024-01-27T13:20:37;239.53;;;84.30;;
4533;SDS011;2279;51.448;7.306;2024-01-27T13:23:05;237.68;;;82.18;;
4533;SDS011;2279;51.448;7.306;2024-01-27T13:25:31;235.13;;;80.25;;
4533;SDS011;2279;51.448;7.306;2024-01-27T13:27:57;236.27;;;80.47;;
4533;SDS011;2279;51.448;7.306;2024-01-27T13:30:23;234.38;;;80.45;;
4533;SDS011;2279;51.448;7.306;2024-01-27T13:32:50;232.35;;;78.15;;
4533;SDS011;2279;51.448;7.306;2024-01-27T13:35:16;235.37;;;81.17;;
4533;SDS011;2279;51.448;7.306;2024-01-27T13:37:42;236.27;;;81.57;;
4533;SDS011;2279;51.448;7.306;2024-01-27T13:40:08;236.45;;;82.40;;
4533;SDS011;2279;51.448;7.306;2024-01-27T13:42:35;237.30;;;83.28;;
4533;SDS011;2279;51.448;7.306;2024-01-27T13:45:01;237.32;;;84.75;;
4533;SDS011;2279;51.448;7.306;2024-01-27T13:47:27;237.38;;;85.95;;
4533;SDS011;2279;51.448;7.306;2024-01-27T13:49:53;237.90;;;86.65;;
4533;SDS011;2279;51.448;7.306;2024-01-27T13:52:19;241.37;;;90.07;;
4533;SDS011;2279;51.448;7.306;2024-01-27T13:54:45;237.17;;;85.37;;
4533;SDS011;2279;51.448;7.306;2024-01-27T13:57:11;239.27;;;88.00;;
4533;SDS011;2279;51.448;7.306;2024-01-27T13:59:37;242.60;;;91.20;;
4533;SDS011;2279;51.448;7.306;2024-01-27T14:02:03;240.40;;;89.53;;
4533;SDS011;2279;51.448;7.306;2024-01-27T14:04:29;234.13;;;85.75;;
4533;SDS011;2279;51.448;7.306;2024-01-27T14:06:55;233.15;;;83.88;;
4533;SDS011;2279;51.448;7.306;2024-01-27T14:09:24;238.90;;;90.87;;
4533;SDS011;2279;51.448;7.306;2024-01-27T14:11:52;235.17;;;86.57;;
4533;SDS011;2279;51.448;7.306;2024-01-27T14:14:18;236.57;;;89.85;;
4533;SDS011;2279;51.448;7.306;2024-01-27T14:16:44;237.93;;;91.13;;
4533;SDS011;2279;51.448;7.306;2024-01-27T14:19:10;239.57;;;89.20;;
4533;SDS011;2279;51.448;7.306;2024-01-27T14:21:36;233.70;;;83.43;;
4533;SDS011;2279;51.448;7.306;2024-01-27T14:24:03;235.43;;;84.03;;
4533;SDS011;2279;51.448;7.306;2024-01-27T14:26:31;237.87;;;86.80;;
4533;SDS011;2279;51.448;7.306;2024-01-27T14:28:57;240.15;;;90.72;;